Time;durP1;ratioP1;P1;durP2;ratioP2;P2;SDS_P1;SDS_P2;PMS_P1;PMS_P2;Temp;Humidity;BMP_temperature;BMP_pressure;BME280_temperature;BME280_humidity;BME280_pressure;Samples;Min_cycle;Max_cycle;Signal;HPM_P1;HPM_P2
2022/10/25 00:00:41;;;;;;;17.00;8.60;;;11.50;99.90;;;;;;5134844;27;20043;-63
2022/10/25 00:03:11;;;;;;;17.98;8.13;;;11.40;99.90;;;;;;5135230;27;20055;-63
2022/10/25 00:05:39;;;;;;;18.67;8.87;;;11.40;99.90;;;;;;5111394;28;20104;-63
2022/10/25 00:08:06;;;;;;;19.73;8.60;;;11.40;99.90;;;;;;5097420;28;20108;-63
2022/10/25 00:10:34;;;;;;;17.05;8.60;;;11.40;99.90;;;;;;5128102;27;20052;-63
2022/10/25 00:13:01;;;;;;;22.30;10.02;;;11.30;99.90;;;;;;5112649;28;20048;-63
2022/10/25 00:15:28;;;;;;;17.55;8.18;;;11.40;99.90;;;;;;5114836;28;20047;-63
2022/10/25 00:17:55;;;;;;;17.45;8.43;;;11.40;99.90;;;;;;5113892;28;20079;-63
2022/10/25 00:20:23;;;;;;;19.70;9.82;;;11.40;99.90;;;;;;5112962;28;20105;-63
2022/10/25 00:22:50;;;;;;;25.60;10.27;;;11.40;99.90;;;;;;5113757;28;20097;-62
2022/10/25 00:25:17;;;;;;;20.00;9.38;;;11.40;99.90;;;;;;5113653;28;20052;-62
2022/10/25 00:27:44;;;;;;;18.85;10.57;;;11.40;99.90;;;;;;5125684;27;20107;-62
2022/10/25 00:30:12;;;;;;;20.55;10.65;;;11.40;99.90;;;;;;5135241;27;20051;-64
2022/10/25 00:32:39;;;;;;;20.25;10.18;;;11.40;99.90;;;;;;5135369;27;20421;-64
2022/10/25 00:35:06;;;;;;;19.15;10.38;;;11.40;99.90;;;;;;5134125;27;20039;-62
2022/10/25 00:37:35;;;;;;;17.23;9.35;;;11.40;99.90;;;;;;5135191;27;20051;-63
2022/10/25 00:40:02;;;;;;;24.73;11.27;;;11.50;99.90;;;;;;5112160;27;20155;-63
2022/10/25 00:42:29;;;;;;;23.88;10.20;;;11.40;99.90;;;;;;5101493;28;20102;-63
2022/10/25 00:44:58;;;;;;;24.73;10.00;;;11.50;99.90;;;;;;5113611;27;20081;-63
2022/10/25 00:47:38;;;;;;;23.77;10.75;;;11.60;99.90;;;;;;5134741;27;20066;-63
2022/10/25 00:50:14;;;;;;;21.75;11.35;;;11.60;99.90;;;;;;5115688;27;20062;-63
2022/10/25 00:52:45;;;;;;;27.95;11.75;;;11.60;99.90;;;;;;5134954;27;20051;-64
2022/10/25 00:55:15;;;;;;;28.10;11.50;;;11.70;99.90;;;;;;5115732;27;20490;-63
2022/10/25 00:57:46;;;;;;;28.00;12.50;;;11.80;99.90;;;;;;5129266;27;20104;-63
2022/10/25 01:00:14;;;;;;;26.13;11.70;;;11.80;99.90;;;;;;5112987;28;20104;-64
2022/10/25 01:02:41;;;;;;;20.92;11.13;;;11.90;99.90;;;;;;5112164;28;20503;-62
2022/10/25 01:05:09;;;;;;;25.88;12.40;;;12.00;99.90;;;;;;5112715;28;20108;-64
2022/10/25 01:07:36;;;;;;;25.55;11.27;;;12.00;99.90;;;;;;5112807;28;20094;-63
2022/10/25 01:10:05;;;;;;;28.05;11.68;;;12.00;99.90;;;;;;5110999;28;20083;-62
2022/10/25 01:12:32;;;;;;;25.70;11.80;;;12.00;99.90;;;;;;5112623;28;20086;-64
2022/10/25 01:15:00;;;;;;;25.65;11.85;;;12.10;99.90;;;;;;5100211;28;20086;-64
2022/10/25 01:17:33;;;;;;;24.63;12.02;;;12.10;99.90;;;;;;5114008;27;20471;-62
2022/10/25 01:20:47;;;;;;;29.23;12.70;;;12.10;99.90;;;;;;5125184;27;20056;-63
2022/10/25 01:23:39;;;;;;;23.13;12.05;;;12.20;99.90;;;;;;5111498;28;20044;-62
2022/10/25 01:26:33;;;;;;;22.10;11.77;;;12.20;99.90;;;;;;5112169;28;20112;-63
2022/10/25 01:29:25;;;;;;;26.42;11.75;;;12.30;99.90;;;;;;5112663;28;20104;-63
2022/10/25 01:31:58;;;;;;;28.73;12.10;;;12.30;99.90;;;;;;5113044;28;20086;-62
2022/10/25 01:34:30;;;;;;;27.42;11.95;;;12.30;99.90;;;;;;5107424;28;20486;-63
2022/10/25 01:37:03;;;;;;;22.23;11.85;;;12.30;99.90;;;;;;5113508;28;20043;-62
2022/10/25 01:39:35;;;;;;;19.30;11.07;;;12.30;99.90;;;;;;5113515;28;20081;-63
2022/10/25 01:42:08;;;;;;;31.45;12.13;;;12.40;99.90;;;;;;5112489;28;20455;-63
2022/10/25 01:44:45;;;;;;;23.70;11.43;;;12.40;99.90;;;;;;5110814;28;20051;-64
2022/10/25 01:47:17;;;;;;;22.35;11.90;;;12.40;99.90;;;;;;5113462;28;20491;-63
2022/10/25 01:49:47;;;;;;;22.65;11.35;;;12.40;99.90;;;;;;5113238;28;20097;-62
2022/10/25 01:52:15;;;;;;;19.13;10.00;;;12.40;99.90;;;;;;5111133;28;20059;-62
2022/10/25 01:54:42;;;;;;;23.20;10.15;;;12.40;99.90;;;;;;5113380;28;20460;-62
2022/10/25 01:57:39;;;;;;;24.85;10.80;;;12.40;99.90;;;;;;5119223;28;20047;-62
2022/10/25 02:00:10;;;;;;;27.33;10.45;;;12.40;99.90;;;;;;5117887;28;20048;-63
2022/10/25 02:02:42;;;;;;;;;;;12.40;99.90;;;;;;5120958;28;20431;-63
2022/10/25 02:05:17;;;;;;;17.65;8.93;;;12.40;99.90;;;;;;5118144;28;19969;-64
2022/10/25 02:07:51;;;;;;;21.88;9.00;;;12.40;99.90;;;;;;5119087;28;20055;-63
2022/10/25 02:10:24;;;;;;;20.85;10.23;;;12.40;99.90;;;;;;5120081;28;20047;-63
2022/10/25 02:12:56;;;;;;;17.50;9.82;;;12.40;99.90;;;;;;5125474;27;20333;-63
2022/10/25 02:15:30;;;;;;;23.13;9.95;;;12.40;99.90;;;;;;5122306;27;20051;-64
2022/10/25 02:18:00;;;;;;;17.80;9.23;;;12.40;99.90;;;;;;5129795;27;20548;-64
2022/10/25 02:20:30;;;;;;;16.10;9.68;;;12.50;99.90;;;;;;5119052;28;20491;-63
2022/10/25 02:22:59;;;;;;;18.55;9.88;;;12.50;99.90;;;;;;5118829;28;20495;-63
2022/10/25 02:25:29;;;;;;;18.27;9.73;;;12.40;99.90;;;;;;5118479;28;20051;-62
2022/10/25 02:27:58;;;;;;;15.48;9.32;;;12.40;99.90;;;;;;5117947;28;20140;-63
2022/10/25 02:30:25;;;;;;;15.63;8.63;;;12.40;99.90;;;;;;5121579;27;20090;-62
2022/10/25 02:32:52;;;;;;;19.50;10.35;;;12.30;99.90;;;;;;5139922;27;20043;-63
2022/10/25 02:35:20;;;;;;;17.55;9.25;;;12.40;99.90;;;;;;5121568;27;20490;-63
2022/10/25 02:37:47;;;;;;;17.75;10.05;;;12.40;99.90;;;;;;5121543;27;20047;-63
2022/10/25 02:40:14;;;;;;;18.50;10.30;;;12.40;99.90;;;;;;5122094;27;20144;-63
2022/10/25 02:42:41;;;;;;;15.70;9.52;;;12.50;99.90;;;;;;5139565;27;20054;-63
2022/10/25 02:45:09;;;;;;;21.05;9.77;;;12.50;99.90;;;;;;5121934;27;20099;-63
2022/10/25 02:47:36;;;;;;;20.30;10.88;;;12.50;99.90;;;;;;5139465;27;20494;-63
2022/10/25 02:50:03;;;;;;;21.23;10.23;;;12.50;99.90;;;;;;5140214;27;20047;-64
2022/10/25 02:52:31;;;;;;;16.90;10.20;;;12.60;99.90;;;;;;5121749;27;20043;-63
2022/10/25 02:54:58;;;;;;;20.65;10.20;;;12.50;99.90;;;;;;5120720;27;20094;-63
2022/10/25 02:57:25;;;;;;;23.05;10.60;;;12.60;99.90;;;;;;5121953;27;20059;-63
2022/10/25 02:59:51;;;;;;;17.48;10.63;;;12.60;99.90;;;;;;5121991;27;20119;-63
2022/10/25 03:02:18;;;;;;;21.73;10.30;;;12.60;99.90;;;;;;5139271;27;20062;-63
2022/10/25 03:04:45;;;;;;;17.20;10.45;;;12.70;99.90;;;;;;5139880;27;20455;-63
2022/10/25 03:07:12;;;;;;;19.88;10.60;;;12.70;99.90;;;;;;5120852;27;20551;-63
2022/10/25 03:09:40;;;;;;;19.27;11.35;;;12.70;99.90;;;;;;5115739;28;20055;-62
2022/10/25 03:12:07;;;;;;;18.52;11.27;;;12.70;99.90;;;;;;5116135;28;20048;-63
2022/10/25 03:14:34;;;;;;;21.42;11.13;;;12.70;99.90;;;;;;5114736;28;20083;-63
2022/10/25 03:17:01;;;;;;;16.13;10.63;;;12.70;99.90;;;;;;5115298;28;20051;-63
2022/10/25 03:19:27;;;;;;;19.23;10.45;;;12.60;99.90;;;;;;5116573;28;20093;-63
2022/10/25 03:21:54;;;;;;;19.50;10.68;;;12.60;99.90;;;;;;5114716;28;20052;-63
2022/10/25 03:24:21;;;;;;;25.98;10.65;;;12.60;99.90;;;;;;5119488;27;20086;-63
2022/10/25 03:26:49;;;;;;;19.95;10.57;;;12.60;99.90;;;;;;5134701;27;20107;-63
2022/10/25 03:29:16;;;;;;;17.27;8.75;;;12.60;99.90;;;;;;5118404;27;20047;-63
2022/10/25 03:31:43;;;;;;;21.20;9.48;;;12.50;99.90;;;;;;5133861;27;20495;-62
2022/10/25 03:34:10;;;;;;;18.17;9.10;;;12.60;99.90;;;;;;5136298;27;20111;-62
2022/10/25 03:36:37;;;;;;;25.48;9.60;;;12.60;99.90;;;;;;5098423;28;20055;-62
2022/10/25 03:39:04;;;;;;;15.77;8.43;;;12.60;99.90;;;;;;5115765;27;20047;-63
2022/10/25 03:41:30;;;;;;;20.33;7.90;;;12.50;99.90;;;;;;5126903;27;20047;-62
2022/10/25 03:43:59;;;;;;;14.20;8.02;;;12.50;99.90;;;;;;5114748;27;20592;-63
2022/10/25 03:46:26;;;;;;;21.98;8.82;;;12.50;99.90;;;;;;5116405;27;20058;-63
2022/10/25 03:48:52;;;;;;;17.17;9.00;;;12.50;99.90;;;;;;5113074;27;21674;-62
2022/10/25 03:51:19;;;;;;;16.40;8.75;;;12.40;99.90;;;;;;5111478;27;20092;-63
2022/10/25 03:53:46;;;;;;;16.38;8.00;;;12.40;99.90;;;;;;5116648;27;20047;-63
2022/10/25 03:56:13;;;;;;;16.90;8.70;;;12.40;99.90;;;;;;5096215;27;20075;-62
2022/10/25 03:58:40;;;;;;;23.73;9.30;;;12.40;99.90;;;;;;5093312;28;20093;-62
2022/10/25 04:01:09;;;;;;;18.48;7.57;;;12.40;99.90;;;;;;5112983;28;20047;-64
2022/10/25 04:03:36;;;;;;;22.02;9.52;;;12.40;99.90;;;;;;5094639;28;20048;-63
2022/10/25 04:06:03;;;;;;;19.42;9.63;;;12.40;99.90;;;;;;5095717;28;20742;-63
2022/10/25 04:08:30;;;;;;;20.27;8.73;;;12.40;99.90;;;;;;5094938;28;20047;-64
2022/10/25 04:10:57;;;;;;;19.38;9.40;;;12.40;99.90;;;;;;5113820;27;20063;-64
2022/10/25 04:13:24;;;;;;;26.80;9.60;;;12.40;99.90;;;;;;5093074;28;20100;-63
2022/10/25 04:15:51;;;;;;;14.63;9.00;;;12.50;99.90;;;;;;5094431;28;20055;-63
2022/10/25 04:18:19;;;;;;;20.75;9.00;;;12.50;99.90;;;;;;5094892;28;20048;-64
2022/10/25 04:20:46;;;;;;;18.45;8.45;;;12.50;99.90;;;;;;5110886;28;20097;-63
2022/10/25 04:23:13;;;;;;;25.95;8.02;;;12.50;99.90;;;;;;5094162;28;20048;-64
2022/10/25 04:25:39;;;;;;;20.98;10.10;;;12.50;99.90;;;;;;5112026;27;20599;-64
2022/10/25 04:28:06;;;;;;;19.40;7.93;;;12.50;99.90;;;;;;5093820;28;20120;-63
2022/10/25 04:30:33;;;;;;;21.17;9.23;;;12.60;99.90;;;;;;5093804;28;20043;-64
2022/10/25 04:33:00;;;;;;;20.15;9.07;;;12.70;99.90;;;;;;5093750;28;20048;-63
2022/10/25 04:35:28;;;;;;;18.40;8.98;;;12.60;99.90;;;;;;5113070;28;20047;-63
2022/10/25 04:37:57;;;;;;;22.80;9.85;;;12.50;99.90;;;;;;5095634;28;20108;-65
2022/10/25 04:40:24;;;;;;;16.00;8.88;;;12.50;99.90;;;;;;5094876;27;20094;-62
2022/10/25 04:42:51;;;;;;;20.33;8.52;;;12.40;99.90;;;;;;5094758;28;20490;-63
2022/10/25 04:45:18;;;;;;;24.98;9.38;;;12.30;99.90;;;;;;5117327;27;20043;-62
2022/10/25 04:47:45;;;;;;;25.75;10.10;;;12.20;99.90;;;;;;5108881;28;20105;-62
2022/10/25 04:50:12;;;;;;;25.17;10.10;;;12.20;99.90;;;;;;5108842;28;20081;-64
2022/10/25 04:52:40;;;;;;;26.98;10.15;;;12.10;99.90;;;;;;5112616;27;20419;-62
2022/10/25 04:55:07;;;;;;;19.83;9.35;;;12.10;99.90;;;;;;5109057;28;20109;-63
2022/10/25 04:57:34;;;;;;;25.00;11.25;;;12.10;99.90;;;;;;5112712;28;20120;-63
2022/10/25 05:00:01;;;;;;;25.67;10.60;;;12.10;99.90;;;;;;5112490;28;20112;-62
2022/10/25 05:02:28;;;;;;;22.92;9.93;;;12.00;99.90;;;;;;5095013;27;20484;-63
2022/10/25 05:04:55;;;;;;;26.98;10.80;;;12.00;99.90;;;;;;5124382;27;20491;-63
2022/10/25 05:07:22;;;;;;;29.02;10.00;;;12.00;99.90;;;;;;5107963;28;20104;-63
2022/10/25 05:09:50;;;;;;;20.75;10.68;;;12.10;99.90;;;;;;5092402;28;20055;-63
2022/10/25 05:12:17;;;;;;;26.17;10.30;;;12.00;99.90;;;;;;5113012;28;20116;-62
2022/10/25 05:14:44;;;;;;;20.85;10.43;;;12.00;99.90;;;;;;5112646;27;20071;-63
2022/10/25 05:17:10;;;;;;;25.15;11.50;;;12.00;99.90;;;;;;5111656;27;20050;-63
2022/10/25 05:19:37;;;;;;;26.33;11.15;;;12.10;99.90;;;;;;5100018;28;20446;-63
2022/10/25 05:22:04;;;;;;;26.20;11.27;;;12.10;99.90;;;;;;5111955;28;20047;-64
2022/10/25 05:24:31;;;;;;;25.10;11.45;;;12.10;99.90;;;;;;5093779;28;20093;-63
2022/10/25 05:26:59;;;;;;;21.33;10.90;;;12.10;99.90;;;;;;5093810;28;20048;-63
2022/10/25 05:29:26;;;;;;;30.38;12.02;;;12.10;99.90;;;;;;5092227;28;20070;-63
2022/10/25 05:31:53;;;;;;;24.88;11.10;;;12.10;99.90;;;;;;5111659;28;20057;-63
2022/10/25 05:34:20;;;;;;;26.27;11.10;;;12.20;99.90;;;;;;5094086;28;20175;-63
2022/10/25 05:36:47;;;;;;;23.35;12.13;;;12.20;99.90;;;;;;5094852;28;20446;-63
2022/10/25 05:39:14;;;;;;;23.40;11.68;;;12.20;99.90;;;;;;5111701;27;20047;-63
2022/10/25 05:41:41;;;;;;;26.92;12.27;;;12.20;99.90;;;;;;5093521;28;20066;-63
2022/10/25 05:44:10;;;;;;;32.15;12.90;;;12.30;99.90;;;;;;5110940;28;20052;-63
2022/10/25 05:46:37;;;;;;;30.25;13.43;;;12.30;99.90;;;;;;5111112;28;20556;-63
2022/10/25 05:49:04;;;;;;;36.95;14.07;;;12.40;99.90;;;;;;5094022;28;20087;-63
2022/10/25 05:51:32;;;;;;;33.45;13.38;;;12.40;99.90;;;;;;5093322;28;20055;-62
2022/10/25 05:54:00;;;;;;;26.67;12.13;;;12.40;99.90;;;;;;5093470;28;20051;-63
2022/10/25 05:56:29;;;;;;;47.25;14.38;;;12.50;99.90;;;;;;5111158;28;20048;-63
2022/10/25 05:58:56;;;;;;;24.85;11.95;;;12.50;99.90;;;;;;5093894;28;20052;-63
2022/10/25 06:01:26;;;;;;;23.17;12.60;;;12.50;99.90;;;;;;5096331;28;20127;-63
2022/10/25 06:03:54;;;;;;;30.02;11.63;;;12.50;99.90;;;;;;5095928;28;20750;-63
2022/10/25 06:06:22;;;;;;;26.75;11.13;;;12.50;99.90;;;;;;5110555;28;20048;-62
2022/10/25 06:08:49;;;;;;;28.42;10.30;;;12.60;99.90;;;;;;5094415;28;20560;-63
2022/10/25 06:11:18;;;;;;;26.17;9.80;;;12.50;99.90;;;;;;5110955;28;20561;-62
2022/10/25 06:13:45;;;;;;;20.65;9.60;;;12.50;99.90;;;;;;5092523;28;20047;-62
2022/10/25 06:16:14;;;;;;;18.10;9.75;;;12.40;99.90;;;;;;5092330;28;20093;-62
2022/10/25 06:18:42;;;;;;;23.35;9.80;;;12.40;99.90;;;;;;5091758;28;20097;-62
2022/10/25 06:21:11;;;;;;;26.20;9.25;;;12.40;99.90;;;;;;5112725;28;20044;-63
2022/10/25 06:23:39;;;;;;;18.55;8.60;;;12.30;99.90;;;;;;5111778;28;20093;-63
2022/10/25 06:26:08;;;;;;;17.63;8.13;;;12.30;99.90;;;;;;5100176;28;20051;-63
2022/10/25 06:28:35;;;;;;;23.67;9.07;;;12.30;99.90;;;;;;5095108;28;20418;-62
2022/10/25 06:31:02;;;;;;;20.55;8.75;;;12.30;99.90;;;;;;5118245;28;20140;-63
2022/10/25 06:33:29;;;;;;;27.90;8.65;;;12.30;99.90;;;;;;5096358;28;20123;-63
2022/10/25 06:35:59;;;;;;;19.40;8.13;;;12.20;99.90;;;;;;5125736;28;20050;-62
2022/10/25 06:38:26;;;;;;;22.35;9.25;;;12.20;99.90;;;;;;5111774;28;20436;-63
2022/10/25 06:40:58;;;;;;;19.38;8.38;;;12.10;99.90;;;;;;5110585;28;20486;-62
2022/10/25 06:43:25;;;;;;;20.50;8.50;;;12.10;99.90;;;;;;5114788;28;20058;-63
2022/10/25 06:45:52;;;;;;;22.33;9.48;;;12.70;99.90;;;;;;5116553;28;20441;-62
2022/10/25 06:48:19;;;;;;;18.88;8.45;;;12.10;99.90;;;;;;5115457;28;20048;-62
2022/10/25 06:50:46;;;;;;;21.40;8.05;;;12.10;99.90;;;;;;5115243;28;20083;-63
2022/10/25 06:53:15;;;;;;;17.85;8.13;;;12.10;99.90;;;;;;5116433;28;20050;-62
2022/10/25 06:55:43;;;;;;;18.42;7.63;;;12.10;99.90;;;;;;5114152;28;20101;-62
2022/10/25 06:58:10;;;;;;;20.75;8.45;;;12.20;99.90;;;;;;5108690;28;20097;-62
2022/10/25 07:00:37;;;;;;;18.95;8.38;;;12.20;99.90;;;;;;5097439;28;20055;-62
2022/10/25 07:03:04;;;;;;;18.02;7.18;;;12.30;99.90;;;;;;5097812;28;20051;-62
2022/10/25 07:05:31;;;;;;;21.67;7.38;;;12.20;99.90;;;;;;5098006;27;20108;-63
2022/10/25 07:07:57;;;;;;;20.77;7.70;;;12.30;99.90;;;;;;5113993;28;20338;-63
2022/10/25 07:10:26;;;;;;;19.55;8.15;;;12.30;99.90;;;;;;5116192;28;20090;-63
2022/10/25 07:12:53;;;;;;;20.10;8.05;;;12.30;99.90;;;;;;5114889;28;20485;-62
2022/10/25 07:15:20;;;;;;;17.90;7.53;;;12.30;99.90;;;;;;5106892;28;20052;-63
2022/10/25 07:17:47;;;;;;;16.58;7.40;;;12.40;99.90;;;;;;5097851;28;20051;-62
2022/10/25 07:20:14;;;;;;;19.13;7.43;;;12.50;99.90;;;;;;5115876;28;20432;-62
2022/10/25 07:22:41;;;;;;;20.77;7.40;;;12.70;99.90;;;;;;5114965;28;20082;-63
2022/10/25 07:25:08;;;;;;;17.42;6.97;;;12.70;99.90;;;;;;5096784;28;20051;-63
2022/10/25 07:27:36;;;;;;;15.43;6.38;;;12.90;99.90;;;;;;5115739;28;20051;-62
2022/10/25 07:30:04;;;;;;;16.23;6.90;;;13.50;99.90;;;;;;5114874;28;20048;-61
2022/10/25 07:32:31;;;;;;;13.93;5.82;;;14.40;99.90;;;;;;5115405;28;20066;-61
2022/10/25 07:34:57;;;;;;;18.52;5.78;;;15.10;99.90;;;;;;5115207;28;20434;-62
2022/10/25 07:37:24;;;;;;;12.68;4.47;;;15.70;99.90;;;;;;5100242;28;20091;-64
2022/10/25 07:39:51;;;;;;;16.45;5.38;;;16.40;99.90;;;;;;5097306;28;20100;-64
2022/10/25 07:42:18;;;;;;;15.95;5.25;;;16.70;99.90;;;;;;5115622;28;20456;-64
2022/10/25 07:44:46;;;;;;;9.90;3.85;;;17.40;99.90;;;;;;5114207;28;20044;-63
2022/10/25 07:47:14;;;;;;;14.13;4.75;;;17.60;99.90;;;;;;5102454;28;20075;-64
2022/10/25 07:49:41;;;;;;;11.10;4.15;;;17.60;99.90;;;;;;5115476;28;20123;-63
2022/10/25 07:52:10;;;;;;;16.98;4.05;;;17.80;99.90;;;;;;5114152;28;20055;-64
2022/10/25 07:54:37;;;;;;;11.23;3.55;;;18.10;99.90;;;;;;5096701;28;20052;-63
2022/10/25 07:57:05;;;;;;;11.82;4.15;;;18.10;99.90;;;;;;5114319;28;20043;-64
2022/10/25 07:59:32;;;;;;;15.75;4.38;;;18.40;99.90;;;;;;5115145;28;20040;-63
2022/10/25 08:02:00;;;;;;;10.60;3.70;;;18.30;99.90;;;;;;5097274;28;20568;-64
2022/10/25 08:04:30;;;;;;;16.42;4.38;;;18.90;99.90;;;;;;5114241;28;20079;-64
2022/10/25 08:06:59;;;;;;;12.18;4.10;;;19.40;99.90;;;;;;5114835;28;20054;-65
2022/10/25 08:09:26;;;;;;;8.30;3.70;;;20.00;99.90;;;;;;5114975;28;20047;-65
2022/10/25 08:11:53;;;;;;;10.02;3.40;;;20.70;99.90;;;;;;5095924;28;20137;-65
2022/10/25 08:14:19;;;;;;;14.73;4.10;;;21.00;99.90;;;;;;5114680;28;20560;-64
2022/10/25 08:16:46;;;;;;;11.52;4.18;;;20.90;99.90;;;;;;5114985;27;20052;-64
2022/10/25 08:19:14;;;;;;;11.98;3.47;;;20.90;99.90;;;;;;5112729;28;20051;-65
2022/10/25 08:21:41;;;;;;;9.43;3.25;;;21.50;99.90;;;;;;5113539;28;20063;-65
2022/10/25 08:24:08;;;;;;;13.38;3.47;;;21.80;99.90;;;;;;5114522;28;20087;-65
2022/10/25 08:26:35;;;;;;;8.98;3.33;;;21.70;99.90;;;;;;5113712;28;20147;-65
2022/10/25 08:29:02;;;;;;;9.80;3.85;;;21.20;99.90;;;;;;5114399;28;20092;-65
2022/10/25 08:31:29;;;;;;;12.18;3.33;;;20.10;99.90;;;;;;5112476;28;20375;-65
2022/10/25 08:33:56;;;;;;;10.45;3.22;;;19.40;99.90;;;;;;5095389;28;20491;-64
2022/10/25 08:36:25;;;;;;;13.38;4.57;;;19.00;99.90;;;;;;5103641;27;20047;-65
2022/10/25 08:38:52;;;;;;;13.50;4.30;;;18.50;99.90;;;;;;5116744;27;20055;-65
2022/10/25 08:41:23;;;;;;;9.15;3.83;;;18.30;99.90;;;;;;5133863;27;20055;-65
2022/10/25 08:44:14;;;;;;;9.63;3.97;;;18.10;99.90;;;;;;5134679;27;20078;-65
2022/10/25 08:46:46;;;;;;;12.38;4.28;;;18.20;99.90;;;;;;5133671;27;20047;-65
2022/10/25 08:49:19;;;;;;;8.52;3.80;;;18.20;99.90;;;;;;5116387;27;20563;-65
2022/10/25 08:51:49;;;;;;;12.32;4.57;;;18.10;99.90;;;;;;5134268;27;20465;-65
2022/10/25 08:54:24;;;;;;;;;;;17.90;99.90;;;;;;5134019;27;20054;-65
2022/10/25 08:56:54;;;;;;;12.38;5.32;;;17.30;99.90;;;;;;5133772;27;19920;-65
2022/10/25 08:59:28;;;;;;;15.55;5.35;;;16.80;99.90;;;;;;5134585;27;20100;-65
2022/10/25 09:01:59;;;;;;;14.15;5.07;;;16.40;99.90;;;;;;5125650;27;20054;-65
2022/10/25 09:04:26;;;;;;;12.45;5.03;;;16.60;99.90;;;;;;5113281;27;20054;-65
2022/10/25 09:07:05;;;;;;;10.10;4.80;;;17.30;99.90;;;;;;5115984;27;20039;-65
2022/10/25 09:09:40;;;;;;;12.55;5.22;;;17.80;99.90;;;;;;5115238;27;20047;-65
2022/10/25 09:12:16;;;;;;;14.10;4.70;;;18.00;99.90;;;;;;5093892;27;20051;-65
2022/10/25 09:14:48;;;;;;;11.07;5.07;;;18.00;99.90;;;;;;5122080;27;20112;-65
2022/10/25 09:17:19;;;;;;;23.83;5.18;;;18.10;99.90;;;;;;5133886;27;20148;-65
2022/10/25 09:20:02;;;;;;;14.80;5.28;;;19.00;99.90;;;;;;5134134;27;20525;-64
2022/10/25 09:22:34;;;;;;;9.30;5.00;;;19.30;99.90;;;;;;5100808;28;20077;-64
2022/10/25 09:25:06;;;;;;;9.93;4.88;;;19.00;99.90;;;;;;5095239;28;20051;-64
2022/10/25 09:27:36;;;;;;;16.10;5.72;;;18.40;99.90;;;;;;5095361;28;20052;-64
2022/10/25 09:30:06;;;;;;;18.27;5.43;;;18.40;99.90;;;;;;5093516;28;20055;-64
2022/10/25 09:32:38;;;;;;;11.68;5.30;;;18.50;99.90;;;;;;5113344;28;20768;-64
2022/10/25 09:35:06;;;;;;;12.80;4.63;;;18.40;99.90;;;;;;5111655;28;20139;-63
2022/10/25 09:37:40;;;;;;;17.80;4.65;;;19.20;99.90;;;;;;5129083;27;20047;-63
2022/10/25 09:40:14;;;;;;;10.52;4.55;;;19.30;99.90;;;;;;5133752;27;20047;-63
2022/10/25 09:42:46;;;;;;;17.65;4.82;;;20.30;99.90;;;;;;5113656;27;20090;-63
2022/10/25 09:45:20;;;;;;;11.43;4.65;;;20.30;99.90;;;;;;5133508;27;20051;-65
2022/10/25 09:47:52;;;;;;;11.45;4.60;;;20.20;99.90;;;;;;5133378;27;20047;-64
2022/10/25 09:50:26;;;;;;;13.15;4.20;;;20.20;99.90;;;;;;5133160;27;20047;-65
2022/10/25 09:53:05;;;;;;;12.18;4.20;;;20.40;99.90;;;;;;5126792;27;20138;-64
2022/10/25 09:55:38;;;;;;;10.13;3.65;;;19.90;99.90;;;;;;5096310;28;20052;-65
2022/10/25 09:58:06;;;;;;;9.63;3.97;;;19.20;99.90;;;;;;5133071;28;20043;-65
2022/10/25 10:00:36;;;;;;;15.48;4.57;;;18.60;99.90;;;;;;5132782;28;20650;-65
2022/10/25 10:03:03;;;;;;;7.78;3.33;;;18.30;99.90;;;;;;5133499;28;20491;-65
2022/10/25 10:05:31;;;;;;;9.02;3.58;;;17.80;99.90;;;;;;5114010;28;20100;-65
2022/10/25 10:07:59;;;;;;;11.02;3.60;;;17.50;99.90;;;;;;5114072;28;20112;-64
2022/10/25 10:10:32;;;;;;;15.48;4.13;;;17.30;99.90;;;;;;5093815;28;20051;-65
2022/10/25 10:13:05;;;;;;;8.75;3.67;;;17.10;99.90;;;;;;5111543;28;20405;-65
2022/10/25 10:15:37;;;;;;;12.98;4.03;;;16.90;99.90;;;;;;5111749;28;20043;-65
2022/10/25 10:18:23;;;;;;;14.13;3.22;;;16.90;99.90;;;;;;5115330;28;20101;-65
2022/10/25 10:21:02;;;;;;;12.98;3.67;;;16.90;99.90;;;;;;5115883;28;20059;-65
2022/10/25 10:23:32;;;;;;;16.60;3.85;;;16.90;99.90;;;;;;5117046;28;20063;-66
2022/10/25 10:26:02;;;;;;;14.68;3.50;;;16.90;99.90;;;;;;5107608;28;20495;-66
2022/10/25 10:28:30;;;;;;;9.75;3.53;;;16.90;99.90;;;;;;5116618;28;20494;-65
2022/10/25 10:30:59;;;;;;;9.13;2.40;;;17.00;99.90;;;;;;5098270;28;20051;-65
2022/10/25 10:33:29;;;;;;;10.90;3.00;;;17.60;99.90;;;;;;5097915;28;20048;-64
2022/10/25 10:35:55;;;;;;;9.80;2.88;;;18.00;99.90;;;;;;5098384;28;20061;-65
2022/10/25 10:38:27;;;;;;;9.68;2.80;;;18.00;99.90;;;;;;5098212;28;20106;-65
2022/10/25 10:41:13;;;;;;;7.65;2.28;;;17.90;99.90;;;;;;5120995;27;20131;-66
2022/10/25 10:43:41;;;;;;;10.73;2.92;;;18.10;99.90;;;;;;5119018;27;20050;-66
2022/10/25 10:46:13;;;;;;;11.52;2.65;;;17.90;99.90;;;;;;5118077;27;20043;-65
2022/10/25 10:48:43;;;;;;;8.82;3.15;;;18.40;99.90;;;;;;5118909;27;20050;-74
2022/10/25 10:51:13;;;;;;;10.55;2.35;;;19.00;99.90;;;;;;5101469;27;20390;-65
2022/10/25 10:53:40;;;;;;;5.33;1.90;;;19.00;99.90;;;;;;5098317;27;20059;-64
2022/10/25 10:56:08;;;;;;;8.30;2.60;;;19.30;99.90;;;;;;5103685;28;20792;-65
2022/10/25 10:58:39;;;;;;;12.63;2.60;;;19.80;99.90;;;;;;5115511;28;20115;-65
2022/10/25 11:01:08;;;;;;;6.53;2.10;;;20.20;99.90;;;;;;5102985;28;20505;-64
2022/10/25 11:03:37;;;;;;;10.10;2.58;;;20.30;99.90;;;;;;5097398;28;20483;-65
2022/10/25 11:06:06;;;;;;;9.15;3.25;;;20.30;99.90;;;;;;5096802;28;20442;-65
2022/10/25 11:08:33;;;;;;;6.85;2.30;;;20.30;99.90;;;;;;5099469;28;20047;-66
2022/10/25 11:11:18;;;;;;;10.73;2.95;;;20.30;99.90;;;;;;5100239;28;20051;-66
2022/10/25 11:13:54;;;;;;;6.90;2.00;;;20.20;99.90;;;;;;5114102;28;20062;-65
2022/10/25 11:16:49;;;;;;;8.25;2.22;;;19.80;99.90;;;;;;5115286;28;20044;-66
2022/10/25 11:19:52;;;;;;;8.27;2.40;;;19.70;99.90;;;;;;5114865;28;20491;-65
2022/10/25 11:22:39;;;;;;;11.30;2.70;;;19.50;99.90;;;;;;5114185;28;20056;-65
2022/10/25 11:25:18;;;;;;;10.25;2.80;;;19.60;99.90;;;;;;5115489;28;20079;-65
2022/10/25 11:27:57;;;;;;;8.50;2.38;;;19.80;99.90;;;;;;5113902;28;20055;-65
2022/10/25 11:30:29;;;;;;;7.20;2.15;;;19.80;99.90;;;;;;5114766;28;20120;-65
2022/10/25 11:33:32;;;;;;;8.15;2.38;;;19.80;99.90;;;;;;5115680;28;20407;-65
2022/10/25 11:36:31;;;;;;;7.70;2.33;;;19.60;99.90;;;;;;5112149;28;20047;-66
2022/10/25 11:39:18;;;;;;;8.23;2.40;;;19.30;99.90;;;;;;5089970;28;20044;-66
2022/10/25 11:41:48;;;;;;;7.78;2.50;;;19.60;99.90;;;;;;5110255;28;20051;-66
2022/10/25 11:44:45;;;;;;;5.53;2.10;;;20.00;99.90;;;;;;5114748;28;20135;-66
2022/10/25 11:47:23;;;;;;;8.15;2.03;;;20.10;99.90;;;;;;5115259;28;20487;-66
2022/10/25 11:49:58;;;;;;;6.78;1.90;;;19.60;99.90;;;;;;5096438;28;20051;-66
2022/10/25 11:52:42;;;;;;;4.90;1.58;;;19.70;99.90;;;;;;5097330;28;20101;-66
2022/10/25 11:55:20;;;;;;;9.05;1.95;;;21.00;99.90;;;;;;5119886;27;20046;-66
2022/10/25 11:57:56;;;;;;;6.18;2.28;;;22.10;99.90;;;;;;5115469;27;20047;-66
2022/10/25 12:00:32;;;;;;;8.57;2.10;;;22.20;99.90;;;;;;5100006;28;20101;-65
2022/10/25 12:03:14;;;;;;;6.97;1.85;;;22.20;99.90;;;;;;5115134;28;20096;-65
2022/10/25 12:05:48;;;;;;;7.70;2.78;;;21.40;99.90;;;;;;5115241;28;20100;-65
2022/10/25 12:08:25;;;;;;;7.32;2.20;;;20.80;99.90;;;;;;5114906;28;20048;-65
2022/10/25 12:10:57;;;;;;;9.48;2.60;;;20.20;99.90;;;;;;5096225;28;20475;-65
2022/10/25 12:13:28;;;;;;;6.25;2.22;;;19.80;99.90;;;;;;5096562;28;20491;-65
2022/10/25 12:15:58;;;;;;;8.13;2.20;;;20.30;99.90;;;;;;5115075;28;20082;-65
2022/10/25 12:18:29;;;;;;;8.40;2.90;;;21.60;99.90;;;;;;5095914;28;20063;-65
2022/10/25 12:20:57;;;;;;;9.93;2.28;;;22.20;99.90;;;;;;5116477;27;20100;-65
2022/10/25 12:23:26;;;;;;;6.05;2.00;;;22.20;99.90;;;;;;5135310;27;20059;-65
2022/10/25 12:25:57;;;;;;;5.30;1.63;;;22.30;99.90;;;;;;5112598;28;20055;-66
2022/10/25 12:28:28;;;;;;;6.63;1.92;;;23.10;99.90;;;;;;5114560;28;20051;-66
2022/10/25 12:31:05;;;;;;;4.32;1.80;;;23.30;99.90;;;;;;5113585;28;20105;-66
2022/10/25 12:33:37;;;;;;;9.15;2.13;;;23.60;99.90;;;;;;5115762;27;20048;-66
2022/10/25 12:36:09;;;;;;;11.23;3.03;;;22.90;99.90;;;;;;5111630;28;20047;-66
2022/10/25 12:38:38;;;;;;;5.80;1.70;;;22.10;99.90;;;;;;5095436;28;20047;-66
2022/10/25 12:41:13;;;;;;;10.68;2.05;;;22.30;99.90;;;;;;5096044;28;20052;-66
2022/10/25 12:43:47;;;;;;;6.50;2.20;;;23.20;99.90;;;;;;5114091;28;20052;-66
2022/10/25 12:46:38;;;;;;;8.38;2.15;;;23.80;99.90;;;;;;5113297;28;20059;-66
2022/10/25 12:49:36;;;;;;;5.72;2.42;;;23.60;99.70;;;;;;5095304;28;20079;-67
2022/10/25 12:55:42;;;;;;;6.18;1.90;;;23.90;99.90;;;;;;5164006;22;20521;-67